Time;durP1;ratioP1;P1;durP2;ratioP2;P2;SDS_P1;SDS_P2;PMS_P1;PMS_P2;Temp;Humidity;BMP_temperature;BMP_pressure;BME280_temperature;BME280_humidity;BME280_pressure;Samples;Min_cycle;Max_cycle;Signal;HPM_P1;HPM_P2
2023/01/28 00:01:49;;;;;;;5.13;4.43;;;1.40;99.90;;;;;;5074096;28;20502;-65
2023/01/28 00:04:17;;;;;;;7.27;5.10;;;1.40;99.90;;;;;;5074002;28;20456;-65
2023/01/28 00:06:44;;;;;;;6.07;4.33;;;1.40;99.90;;;;;;5073853;28;20451;-65
2023/01/28 00:09:10;;;;;;;8.33;5.10;;;1.40;99.90;;;;;;5073671;28;20459;-66
2023/01/28 00:11:38;;;;;;;8.73;4.97;;;1.40;99.90;;;;;;5073800;28;20476;-65
2023/01/28 00:14:06;;;;;;;7.10;5.07;;;1.30;99.90;;;;;;5073625;28;20452;-65
2023/01/28 00:16:32;;;;;;;12.07;5.83;;;1.30;99.90;;;;;;5073859;28;20459;-65
2023/01/28 00:18:59;;;;;;;7.57;5.27;;;1.30;99.90;;;;;;5073543;28;20448;-65
2023/01/28 00:21:25;;;;;;;9.17;4.63;;;1.30;99.90;;;;;;5073453;28;20484;-65
2023/01/28 00:23:54;;;;;;;8.67;5.80;;;1.20;99.90;;;;;;5073296;28;20450;-65
2023/01/28 00:26:22;;;;;;;12.67;7.80;;;1.20;99.90;;;;;;5073870;28;20447;-65
2023/01/28 00:28:50;;;;;;;16.77;8.27;;;1.30;99.90;;;;;;5073711;28;20497;-64
2023/01/28 00:31:18;;;;;;;14.80;9.37;;;1.20;99.90;;;;;;5073705;28;20460;-65
2023/01/28 00:33:45;;;;;;;9.40;6.30;;;1.10;99.90;;;;;;5072721;28;20872;-65
2023/01/28 00:36:13;;;;;;;7.80;5.40;;;1.10;99.90;;;;;;5072993;28;20506;-65
2023/01/28 00:38:41;;;;;;;8.40;5.67;;;1.10;99.90;;;;;;5073341;28;20497;-65
2023/01/28 00:41:09;;;;;;;10.13;5.53;;;1.10;99.90;;;;;;5073422;28;20537;-65
2023/01/28 00:43:36;;;;;;;7.37;5.50;;;1.20;99.90;;;;;;5073065;28;20565;-66
2023/01/28 00:46:06;;;;;;;7.27;5.30;;;1.20;99.90;;;;;;5073398;28;20452;-66
2023/01/28 00:48:33;;;;;;;6.83;5.20;;;1.20;99.90;;;;;;5072604;28;20468;-66
2023/01/28 00:50:59;;;;;;;8.00;5.50;;;1.20;99.90;;;;;;5073302;28;20471;-66
2023/01/28 00:53:26;;;;;;;13.70;5.57;;;1.30;99.90;;;;;;5072534;28;20464;-65
2023/01/28 00:55:53;;;;;;;11.23;5.50;;;1.20;99.90;;;;;;5073382;28;20505;-66
2023/01/28 00:58:20;;;;;;;9.47;5.30;;;1.20;99.90;;;;;;5073007;28;20460;-66
2023/01/28 01:00:46;;;;;;;8.30;5.20;;;1.40;99.90;;;;;;5072862;28;20537;-66
2023/01/28 01:03:14;;;;;;;7.50;4.97;;;1.30;99.90;;;;;;5072876;28;20456;-66
2023/01/28 01:05:41;;;;;;;11.03;4.93;;;1.30;99.90;;;;;;5072720;28;20456;-66
2023/01/28 01:08:08;;;;;;;5.47;4.50;;;1.30;99.90;;;;;;5072916;28;20456;-66
2023/01/28 01:10:35;;;;;;;10.80;5.10;;;1.30;99.90;;;;;;5073262;28;20494;-66
2023/01/28 01:13:01;;;;;;;6.47;5.43;;;1.30;99.90;;;;;;5072675;28;20530;-66
2023/01/28 01:15:28;;;;;;;7.60;6.10;;;1.30;99.90;;;;;;5072539;28;20451;-66
2023/01/28 01:17:55;;;;;;;10.60;5.07;;;1.30;99.90;;;;;;5072267;28;20490;-66
2023/01/28 01:20:26;;;;;;;8.20;5.67;;;1.30;99.90;;;;;;5072710;28;20492;-66
2023/01/28 01:22:53;;;;;;;6.93;4.87;;;1.30;99.90;;;;;;5072576;28;20526;-66
2023/01/28 01:25:20;;;;;;;5.87;4.90;;;1.30;99.90;;;;;;5072581;28;20847;-66
2023/01/28 01:27:49;;;;;;;8.10;4.80;;;1.30;99.90;;;;;;5071526;28;20455;-67
2023/01/28 01:30:16;;;;;;;6.53;5.30;;;1.30;99.90;;;;;;5069569;28;20451;-66
2023/01/28 01:32:43;;;;;;;6.63;5.33;;;1.20;99.90;;;;;;5071483;28;20471;-72
2023/01/28 01:35:10;;;;;;;9.63;5.73;;;1.20;99.90;;;;;;5071199;28;20481;-71
2023/01/28 01:37:38;;;;;;;8.10;5.60;;;1.10;99.90;;;;;;5071814;28;20456;-72
2023/01/28 01:40:06;;;;;;;6.13;5.00;;;1.10;99.90;;;;;;5071531;28;20545;-66
2023/01/28 01:42:34;;;;;;;7.17;4.73;;;1.10;99.90;;;;;;5071629;28;20480;-69
2023/01/28 01:45:02;;;;;;;9.23;4.97;;;1.00;99.90;;;;;;5071731;28;20459;-72
2023/01/28 01:47:35;;;;;;;9.30;4.70;;;0.90;99.90;;;;;;5071580;28;20456;-66
2023/01/28 01:50:09;;;;;;;6.03;4.97;;;0.90;99.90;;;;;;5064506;28;20832;-67
2023/01/28 01:52:36;;;;;;;7.93;4.30;;;0.90;99.90;;;;;;5071533;28;20521;-67
2023/01/28 01:55:11;;;;;;;5.33;4.80;;;0.90;99.90;;;;;;5071377;28;20456;-66
2023/01/28 01:57:38;;;;;;;7.87;4.50;;;0.90;99.90;;;;;;5070586;28;20451;-66
2023/01/28 02:00:07;;;;;;;5.70;5.00;;;0.80;99.90;;;;;;5070680;28;21011;-66
2023/01/28 02:02:37;;;;;;;6.83;4.80;;;0.80;99.90;;;;;;5069997;28;20468;-66
2023/01/28 02:05:05;;;;;;;7.07;4.70;;;0.80;99.90;;;;;;5070724;28;20518;-66
2023/01/28 02:07:32;;;;;;;6.43;4.43;;;0.80;99.90;;;;;;5071717;28;20890;-66
2023/01/28 02:09:58;;;;;;;7.10;5.40;;;0.80;99.90;;;;;;5071301;28;20454;-66
2023/01/28 02:12:30;;;;;;;12.17;6.10;;;0.80;99.90;;;;;;5071671;28;20472;-66
2023/01/28 02:15:02;;;;;;;7.67;5.53;;;0.80;99.90;;;;;;5070873;28;20452;-65
2023/01/28 02:17:29;;;;;;;6.50;5.33;;;0.80;99.90;;;;;;5070957;28;20509;-66
2023/01/28 02:19:58;;;;;;;7.20;4.80;;;0.80;99.90;;;;;;5070748;28;20483;-66
2023/01/28 02:22:59;;;;;;;7.30;4.93;;;0.80;99.90;;;;;;5071215;28;20484;-66
2023/01/28 02:26:01;;;;;;;5.20;4.50;;;0.80;99.90;;;;;;5067200;28;20943;-66
2023/01/28 02:28:34;;;;;;;12.43;4.87;;;0.80;99.90;;;;;;5035840;28;20926;-66
2023/01/28 02:31:08;;;;;;;7.33;4.43;;;0.70;99.90;;;;;;5066257;28;20821;-66
2023/01/28 02:33:41;;;;;;;7.40;4.53;;;0.70;99.90;;;;;;5066497;28;20458;-66
2023/01/28 02:36:16;;;;;;;4.53;4.10;;;0.70;99.90;;;;;;5070799;28;20488;-66
2023/01/28 02:38:48;;;;;;;8.43;4.33;;;0.80;99.90;;;;;;5070546;28;21032;-66
2023/01/28 02:41:21;;;;;;;5.60;4.37;;;0.80;99.90;;;;;;5071149;28;20556;-66
2023/01/28 02:43:49;;;;;;;7.17;4.50;;;0.80;99.90;;;;;;5070768;28;20877;-66
2023/01/28 02:49:10;;;;;;;6.33;4.53;;;0.90;99.90;;;;;;5070789;28;20447;-66
2023/01/28 02:52:02;;;;;;;9.73;4.97;;;0.90;99.90;;;;;;5070789;28;20984;-66
2023/01/28 02:54:38;;;;;;;6.00;4.70;;;1.00;99.90;;;;;;5070600;28;20455;-67
2023/01/28 02:57:17;;;;;;;8.47;4.57;;;1.00;99.90;;;;;;5071117;28;20447;-66
2023/01/28 02:59:52;;;;;;;6.20;4.40;;;1.00;99.90;;;;;;5070995;28;20440;-67
2023/01/28 03:02:26;;;;;;;5.13;4.37;;;1.00;99.90;;;;;;5070761;28;20505;-67
2023/01/28 03:05:00;;;;;;;4.90;4.30;;;1.00;99.90;;;;;;5070214;28;21004;-66
2023/01/28 03:07:29;;;;;;;5.03;4.10;;;1.10;99.90;;;;;;5070429;28;20451;-67
2023/01/28 03:09:57;;;;;;;7.20;4.60;;;1.10;99.90;;;;;;5070663;28;20939;-67
2023/01/28 03:37:36;;;;;;;5.83;4.47;;;1.10;99.90;;;;;;5071270;28;20435;-65
2023/01/28 03:40:05;;;;;;;4.63;4.23;;;1.10;99.90;;;;;;5074027;28;20513;-65
2023/01/28 03:42:32;;;;;;;4.60;4.20;;;1.10;99.90;;;;;;5073941;28;20529;-65
2023/01/28 03:45:02;;;;;;;6.10;4.90;;;1.10;99.90;;;;;;5073562;28;20448;-64
2023/01/28 03:47:31;;;;;;;8.67;5.00;;;1.10;99.90;;;;;;5073790;28;21141;-66
2023/01/28 03:49:59;;;;;;;10.03;5.50;;;1.10;99.90;;;;;;5073991;28;20452;-66
2023/01/28 03:52:29;;;;;;;11.67;4.97;;;1.10;99.90;;;;;;5074130;28;20858;-67
2023/01/28 03:54:56;;;;;;;7.37;4.83;;;1.00;99.90;;;;;;5074124;28;20455;-67
2023/01/28 03:57:25;;;;;;;6.30;4.80;;;1.10;99.90;;;;;;5074166;28;20455;-67
2023/01/28 03:59:52;;;;;;;8.00;4.20;;;1.10;99.90;;;;;;5072926;28;20464;-65
2023/01/28 04:02:20;;;;;;;8.80;4.97;;;1.00;99.90;;;;;;5073829;28;20482;-65
2023/01/28 04:04:49;;;;;;;9.13;4.80;;;1.00;99.90;;;;;;5073320;28;20463;-66
2023/01/28 04:07:16;;;;;;;7.03;4.70;;;1.00;99.90;;;;;;5073725;28;20444;-66
2023/01/28 04:09:43;;;;;;;6.20;4.37;;;1.00;99.90;;;;;;5073602;28;20455;-66
2023/01/28 04:12:10;;;;;;;9.23;4.80;;;1.10;99.90;;;;;;5073604;28;20525;-66
2023/01/28 04:14:38;;;;;;;5.30;4.80;;;1.00;99.90;;;;;;5072823;28;20974;-65
2023/01/28 04:17:06;;;;;;;6.07;4.40;;;1.00;99.90;;;;;;5073437;28;20546;-66
2023/01/28 04:19:35;;;;;;;7.83;4.40;;;1.00;99.90;;;;;;5073784;28;20893;-65
2023/01/28 04:22:04;;;;;;;10.10;4.63;;;1.00;99.90;;;;;;5073136;28;20488;-66
2023/01/28 04:24:31;;;;;;;5.20;4.70;;;1.00;99.90;;;;;;5072375;28;20517;-66
2023/01/28 04:26:58;;;;;;;9.50;4.80;;;1.00;99.90;;;;;;5073200;28;20482;-66
2023/01/28 04:29:24;;;;;;;6.67;4.90;;;1.00;99.90;;;;;;5073297;28;20510;-66
2023/01/28 04:31:51;;;;;;;11.40;5.17;;;0.90;99.90;;;;;;5072715;28;20464;-66
2023/01/28 04:34:19;;;;;;;6.17;5.00;;;0.90;99.90;;;;;;5067446;28;20460;-66
2023/01/28 04:36:45;;;;;;;8.10;5.03;;;1.00;99.90;;;;;;5073002;28;20452;-66
2023/01/28 04:39:14;;;;;;;8.20;4.50;;;0.90;99.90;;;;;;5073210;28;20514;-65
2023/01/28 04:41:40;;;;;;;7.60;4.83;;;0.90;99.90;;;;;;5072892;28;20491;-66
2023/01/28 04:44:07;;;;;;;7.13;5.00;;;0.90;99.90;;;;;;5072920;28;20464;-66
2023/01/28 04:46:34;;;;;;;7.13;5.23;;;0.90;99.90;;;;;;5072165;28;20460;-66
2023/01/28 04:49:00;;;;;;;7.13;4.40;;;0.90;99.90;;;;;;5073280;28;20525;-66
2023/01/28 04:51:27;;;;;;;8.20;5.03;;;0.90;99.90;;;;;;5073032;28;20464;-66
2023/01/28 04:53:54;;;;;;;10.00;4.70;;;0.90;99.90;;;;;;5072871;28;20537;-66
2023/01/28 04:56:22;;;;;;;9.93;5.10;;;0.90;99.90;;;;;;5072376;28;20452;-66
2023/01/28 04:58:48;;;;;;;8.40;5.33;;;0.90;99.90;;;;;;5072865;28;20460;-66
2023/01/28 05:01:15;;;;;;;8.27;5.00;;;1.00;99.90;;;;;;5072750;28;20491;-66
2023/01/28 05:03:41;;;;;;;7.50;5.07;;;1.00;99.90;;;;;;5072661;28;20860;-65
2023/01/28 05:06:09;;;;;;;4.67;4.10;;;1.00;99.90;;;;;;5072410;28;20455;-66
2023/01/28 05:08:35;;;;;;;10.47;4.40;;;1.00;99.90;;;;;;5072413;28;20866;-67
2023/01/28 05:11:02;;;;;;;6.97;4.27;;;1.00;99.90;;;;;;5070862;28;20472;-65
2023/01/28 05:13:30;;;;;;;4.93;4.43;;;1.00;99.90;;;;;;5071858;28;20452;-66
2023/01/28 05:15:57;;;;;;;4.23;3.83;;;1.00;99.90;;;;;;5072322;28;20529;-66
2023/01/28 05:18:23;;;;;;;6.87;4.47;;;1.00;99.90;;;;;;5072407;28;20863;-66
2023/01/28 05:20:50;;;;;;;5.47;4.30;;;1.00;99.90;;;;;;5072140;28;20911;-67
2023/01/28 05:23:16;;;;;;;5.80;4.40;;;1.00;99.90;;;;;;5072228;28;20502;-66
2023/01/28 05:25:44;;;;;;;5.33;4.80;;;1.00;99.90;;;;;;5071712;28;20456;-66
2023/01/28 05:28:11;;;;;;;6.70;4.47;;;1.00;99.90;;;;;;5071552;28;20456;-65
2023/01/28 05:30:39;;;;;;;5.00;4.03;;;1.00;99.90;;;;;;5068494;28;20950;-66
2023/01/28 05:33:06;;;;;;;6.77;4.20;;;1.00;99.90;;;;;;5072006;28;20883;-67
2023/01/28 05:35:32;;;;;;;9.53;4.23;;;1.00;99.90;;;;;;5071419;28;20456;-66
2023/01/28 05:37:59;;;;;;;8.30;4.30;;;1.00;99.90;;;;;;5071515;28;20448;-66
2023/01/28 05:40:26;;;;;;;5.43;4.50;;;1.00;99.90;;;;;;5071785;28;20464;-66
2023/01/28 05:42:52;;;;;;;5.70;3.93;;;1.00;99.90;;;;;;5071690;28;20476;-66
2023/01/28 05:45:19;;;;;;;6.00;4.57;;;1.00;99.90;;;;;;5072773;28;20448;-66
2023/01/28 05:47:47;;;;;;;5.10;4.60;;;1.00;99.90;;;;;;5074037;28;21017;-67
2023/01/28 05:50:14;;;;;;;6.20;4.30;;;1.00;99.90;;;;;;5071615;28;20929;-67
2023/01/28 05:52:41;;;;;;;5.20;4.00;;;1.00;99.90;;;;;;5070939;28;20494;-66
2023/01/28 05:55:09;;;;;;;4.40;4.00;;;1.10;99.90;;;;;;5071800;28;20509;-67
2023/01/28 05:57:35;;;;;;;4.80;3.90;;;1.00;99.90;;;;;;5071483;28;20525;-66
2023/01/28 06:00:03;;;;;;;5.03;3.93;;;1.00;99.90;;;;;;5071177;28;20867;-67
2023/01/28 06:02:29;;;;;;;4.63;4.03;;;1.00;99.90;;;;;;5071103;28;20545;-67
2023/01/28 06:04:57;;;;;;;4.37;3.93;;;1.00;99.90;;;;;;5071335;28;20447;-66
2023/01/28 06:07:24;;;;;;;5.47;4.17;;;0.90;99.90;;;;;;5070687;28;20448;-67
2023/01/28 06:09:50;;;;;;;4.30;4.00;;;1.00;99.90;;;;;;5071496;28;20502;-66
2023/01/28 06:12:17;;;;;;;4.60;4.20;;;1.00;99.90;;;;;;5071234;28;20480;-67
2023/01/28 06:14:44;;;;;;;4.67;4.27;;;0.90;99.90;;;;;;5071219;28;20513;-66
2023/01/28 06:17:10;;;;;;;5.77;4.67;;;1.10;99.90;;;;;;5071190;28;20993;-66
2023/01/28 06:19:37;;;;;;;4.20;3.80;;;1.10;99.90;;;;;;5071408;28;20448;-66
2023/01/28 06:22:05;;;;;;;5.80;4.17;;;1.00;99.90;;;;;;5070624;28;20553;-66
2023/01/28 06:24:31;;;;;;;4.80;4.30;;;1.00;99.90;;;;;;5071107;28;20513;-67
2023/01/28 06:26:58;;;;;;;4.40;4.00;;;1.00;99.90;;;;;;5071057;28;20455;-65
2023/01/28 06:29:25;;;;;;;3.97;3.67;;;1.00;99.90;;;;;;5071120;28;20448;-66
2023/01/28 06:31:51;;;;;;;6.83;4.27;;;1.00;99.90;;;;;;5070502;28;20984;-66
2023/01/28 06:34:18;;;;;;;4.37;3.97;;;1.00;99.90;;;;;;5070003;28;20952;-66
2023/01/28 06:36:45;;;;;;;7.20;3.73;;;1.00;99.90;;;;;;5070580;28;20452;-66
2023/01/28 06:39:13;;;;;;;5.73;3.40;;;1.00;99.90;;;;;;5069947;28;20452;-66
2023/01/28 06:41:40;;;;;;;4.90;4.40;;;1.00;99.90;;;;;;5070304;28;20491;-67
2023/01/28 06:44:06;;;;;;;5.10;4.60;;;1.00;99.90;;;;;;5069961;28;20451;-66
2023/01/28 06:46:33;;;;;;;4.37;3.90;;;1.00;99.90;;;;;;5069895;28;20452;-65
2023/01/28 06:49:00;;;;;;;5.17;3.70;;;1.00;99.90;;;;;;5070186;28;20452;-67
2023/01/28 06:51:26;;;;;;;5.13;3.90;;;1.00;99.90;;;;;;5070098;28;20467;-66
2023/01/28 06:53:53;;;;;;;4.40;4.00;;;1.00;99.90;;;;;;5069188;28;20512;-68
2023/01/28 06:56:21;;;;;;;4.97;3.80;;;1.00;99.90;;;;;;5070055;28;20526;-67
2023/01/28 06:58:48;;;;;;;4.47;4.07;;;1.00;99.90;;;;;;5070225;28;20452;-68
2023/01/28 07:01:14;;;;;;;4.67;3.20;;;0.90;99.90;;;;;;5070371;28;20518;-68
2023/01/28 07:03:41;;;;;;;4.27;3.40;;;1.00;99.90;;;;;;5070347;28;20456;-67
2023/01/28 07:06:08;;;;;;;4.00;3.60;;;1.00;99.90;;;;;;5071250;28;20448;-68
2023/01/28 07:08:36;;;;;;;5.13;3.43;;;1.00;99.90;;;;;;5070200;28;20444;-68
2023/01/28 07:11:03;;;;;;;3.63;3.33;;;1.00;99.90;;;;;;5066663;28;20502;-67
2023/01/28 07:13:31;;;;;;;5.33;3.50;;;1.00;99.90;;;;;;5069744;28;20458;-68
2023/01/28 07:15:58;;;;;;;4.30;3.60;;;1.00;99.90;;;;;;5070566;28;20463;-68
2023/01/28 07:18:25;;;;;;;4.90;3.03;;;1.00;99.90;;;;;;5070538;28;20444;-67
2023/01/28 07:20:51;;;;;;;3.70;3.33;;;1.00;99.90;;;;;;5070077;28;20455;-67
2023/01/28 07:23:18;;;;;;;3.17;2.93;;;1.00;99.90;;;;;;5070273;28;20488;-67
2023/01/28 07:25:45;;;;;;;3.53;3.20;;;1.00;99.90;;;;;;5070137;28;20506;-67
2023/01/28 07:28:11;;;;;;;8.80;3.30;;;1.00;99.90;;;;;;5070104;28;20972;-67
2023/01/28 07:30:39;;;;;;;3.70;3.40;;;1.00;99.90;;;;;;5070454;28;20464;-67
2023/01/28 07:33:06;;;;;;;3.37;3.07;;;1.00;99.90;;;;;;5070260;28;20498;-67
2023/01/28 07:35:34;;;;;;;3.47;3.13;;;1.00;99.90;;;;;;5070105;28;20940;-67
2023/01/28 07:38:01;;;;;;;3.60;3.30;;;1.00;99.90;;;;;;5069923;28;20513;-68
2023/01/28 07:40:28;;;;;;;4.77;3.27;;;1.00;99.90;;;;;;5070805;28;20586;-68
2023/01/28 07:42:55;;;;;;;3.83;3.47;;;0.90;99.90;;;;;;5069328;28;21002;-68
2023/01/28 07:45:23;;;;;;;2.40;2.30;;;1.10;99.90;;;;;;5071838;28;20517;-66
2023/01/28 07:47:55;;;;;;;3.50;3.20;;;1.00;99.90;;;;;;5072968;28;20458;-66
2023/01/28 07:50:22;;;;;;;3.23;2.93;;;1.00;99.90;;;;;;5070075;28;20546;-66
2023/01/28 07:52:49;;;;;;;4.00;3.00;;;1.00;99.90;;;;;;5069607;28;20468;-68
2023/01/28 07:55:15;;;;;;;7.00;3.40;;;1.00;99.90;;;;;;5070420;28;20501;-68
2023/01/28 07:57:49;;;;;;;4.50;3.00;;;1.00;99.90;;;;;;5070475;28;20482;-68
2023/01/28 08:00:16;;;;;;;4.10;2.70;;;1.00;99.90;;;;;;5072084;28;20456;-68
2023/01/28 08:02:46;;;;;;;3.47;2.77;;;1.00;99.90;;;;;;5069403;28;20851;-68
2023/01/28 08:05:16;;;;;;;2.93;2.63;;;1.00;99.90;;;;;;5072915;28;20539;-68
2023/01/28 08:07:42;;;;;;;2.73;2.53;;;1.10;99.90;;;;;;5072880;28;20452;-68
2023/01/28 08:10:10;;;;;;;3.17;2.50;;;1.00;99.90;;;;;;5073631;28;20443;-68
2023/01/28 08:12:37;;;;;;;2.77;2.57;;;1.00;99.90;;;;;;5072342;28;20872;-68
2023/01/28 08:15:05;;;;;;;2.60;2.40;;;1.10;99.90;;;;;;5072477;28;20452;-70
2023/01/28 08:17:31;;;;;;;3.17;2.30;;;1.00;99.90;;;;;;5072809;28;20451;-68
2023/01/28 08:19:58;;;;;;;2.80;2.60;;;1.00;99.90;;;;;;5072887;28;20448;-68
2023/01/28 08:22:26;;;;;;;3.57;2.50;;;1.00;99.90;;;;;;5071127;28;20492;-68
2023/01/28 08:24:53;;;;;;;3.10;2.80;;;1.10;99.90;;;;;;5071125;28;20939;-68
2023/01/28 08:27:20;;;;;;;3.70;2.70;;;1.00;99.90;;;;;;5072300;28;20448;-68
2023/01/28 08:29:46;;;;;;;7.20;2.43;;;1.10;99.90;;;;;;5072432;28;20868;-68
2023/01/28 08:32:13;;;;;;;3.03;2.70;;;1.00;99.90;;;;;;5071825;28;20530;-67
2023/01/28 08:34:39;;;;;;;5.67;3.40;;;1.10;99.90;;;;;;5068410;28;20791;-68
2023/01/28 08:37:06;;;;;;;13.83;2.83;;;1.00;99.90;;;;;;5073356;28;20463;-68
2023/01/28 08:39:34;;;;;;;6.73;2.90;;;1.10;99.90;;;;;;5072250;28;20850;-71
2023/01/28 08:42:01;;;;;;;2.93;2.70;;;1.10;99.90;;;;;;5072136;28;20491;-70
2023/01/28 08:44:27;;;;;;;2.70;2.50;;;1.00;99.90;;;;;;5071963;28;20502;-70
2023/01/28 08:46:54;;;;;;;2.83;2.63;;;1.00;99.90;;;;;;5071906;28;20841;-66
2023/01/28 08:49:21;;;;;;;2.93;2.67;;;1.00;99.90;;;;;;5071951;28;20448;-67
2023/01/28 08:51:48;;;;;;;3.77;2.63;;;1.00;99.90;;;;;;5072489;28;20478;-67
2023/01/28 08:54:15;;;;;;;4.53;3.17;;;1.00;99.90;;;;;;5071814;28;20448;-67
2023/01/28 08:56:43;;;;;;;3.20;2.90;;;1.10;99.90;;;;;;5072011;28;20460;-68
2023/01/28 08:59:10;;;;;;;2.97;2.73;;;1.20;99.90;;;;;;5071512;28;20983;-69
2023/01/28 09:01:37;;;;;;;4.13;2.90;;;2.00;99.90;;;;;;5071557;28;20467;-69
2023/01/28 09:04:04;;;;;;;2.77;2.57;;;3.00;99.90;;;;;;5071397;28;20526;-69
2023/01/28 09:06:31;;;;;;;2.72;2.17;;;3.80;99.90;;;;;;5070719;28;20492;-67
2023/01/28 09:08:57;;;;;;;2.53;2.33;;;4.10;99.90;;;;;;5071557;28;20292;-67
2023/01/28 09:11:24;;;;;;;2.90;2.47;;;3.80;99.90;;;;;;5066432;28;20476;-68
2023/01/28 09:13:52;;;;;;;2.40;2.20;;;3.30;99.90;;;;;;5071598;28;20486;-67
2023/01/28 09:16:19;;;;;;;3.03;2.27;;;2.90;99.90;;;;;;5071510;28;20983;-68
2023/01/28 09:18:47;;;;;;;2.60;2.40;;;2.50;99.90;;;;;;5071802;28;20448;-68
2023/01/28 09:21:14;;;;;;;3.30;2.30;;;2.20;99.90;;;;;;5071252;28;20484;-68
2023/01/28 09:23:41;;;;;;;2.97;2.50;;;2.00;99.90;;;;;;5070872;28;20487;-68
2023/01/28 09:26:08;;;;;;;2.33;2.23;;;1.70;99.90;;;;;;5071007;28;20518;-68
2023/01/28 09:28:37;;;;;;;2.50;2.30;;;1.60;99.90;;;;;;5071317;28;20459;-68
2023/01/28 09:31:06;;;;;;;4.13;2.57;;;1.50;99.90;;;;;;5070905;28;20511;-68
2023/01/28 09:33:33;;;;;;;3.67;2.43;;;1.50;99.90;;;;;;5065723;28;20497;-68
2023/01/28 09:36:01;;;;;;;7.40;3.23;;;1.40;99.90;;;;;;5070163;28;20468;-68
2023/01/28 09:38:29;;;;;;;2.67;2.33;;;1.40;99.90;;;;;;5071300;28;20460;-68
2023/01/28 09:40:56;;;;;;;3.00;2.80;;;1.40;99.90;;;;;;5069215;28;20456;-67
2023/01/28 09:43:50;;;;;;;3.17;2.87;;;1.40;99.90;;;;;;5070542;28;20920;-68
2023/01/28 09:46:18;;;;;;;2.43;2.23;;;1.40;99.90;;;;;;5074481;28;20448;-68
2023/01/28 09:48:47;;;;;;;3.80;2.40;;;1.40;99.90;;;;;;5070718;28;20568;-69
2023/01/28 09:51:26;;;;;;;3.40;3.10;;;1.30;99.90;;;;;;5070394;28;20471;-68
2023/01/28 09:53:57;;;;;;;3.30;2.33;;;1.30;99.90;;;;;;5069404;28;20557;-68
2023/01/28 09:56:28;;;;;;;3.10;2.47;;;1.30;99.90;;;;;;5070422;28;20460;-68
2023/01/28 09:58:56;;;;;;;4.23;2.60;;;1.40;99.90;;;;;;5070394;28;20535;-67
2023/01/28 10:01:38;;;;;;;2.83;2.63;;;1.30;99.90;;;;;;5070442;28;20578;-68
2023/01/28 10:04:12;;;;;;;2.60;2.10;;;1.30;99.90;;;;;;5070306;28;20888;-68
2023/01/28 10:06:54;;;;;;;2.33;2.20;;;1.30;99.90;;;;;;5069948;28;20481;-68
2023/01/28 10:09:40;;;;;;;2.47;2.27;;;1.30;99.90;;;;;;5070580;28;20458;-69
2023/01/28 10:12:22;;;;;;;2.50;2.30;;;1.30;99.90;;;;;;5064953;28;20584;-68
2023/01/28 10:14:59;;;;;;;3.33;2.20;;;1.40;99.90;;;;;;5066678;28;20464;-68
2023/01/28 10:17:32;;;;;;;5.70;2.40;;;1.40;99.90;;;;;;5069090;28;20553;-69
2023/01/28 10:20:03;;;;;;;2.53;2.33;;;1.40;99.90;;;;;;5072491;28;20494;-69
2023/01/28 10:22:35;;;;;;;2.70;2.50;;;1.40;99.90;;;;;;5070469;28;20549;-69
2023/01/28 10:25:06;;;;;;;2.63;2.43;;;1.40;99.90;;;;;;5068668;28;21036;-69
2023/01/28 10:27:34;;;;;;;3.60;2.83;;;1.40;99.90;;;;;;5071072;28;20452;-69
2023/01/28 10:30:16;;;;;;;2.77;2.37;;;1.50;99.90;;;;;;5070321;28;20460;-69
2023/01/28 10:32:52;;;;;;;2.97;2.67;;;1.50;99.90;;;;;;5068641;28;20823;-69
2023/01/28 10:35:19;;;;;;;2.83;2.53;;;1.50;99.90;;;;;;5063183;28;20572;-68
2023/01/28 10:37:46;;;;;;;2.20;2.00;;;1.50;99.90;;;;;;5071005;28;20451;-69
2023/01/28 10:40:15;;;;;;;3.17;2.00;;;1.50;99.90;;;;;;5070779;28;20448;-68
2023/01/28 10:42:41;;;;;;;2.90;2.37;;;1.50;99.90;;;;;;5070961;28;20499;-68
2023/01/28 10:45:17;;;;;;;2.90;2.60;;;1.50;99.90;;;;;;5070091;28;20518;-68
2023/01/28 10:47:50;;;;;;;7.67;1.90;;;1.50;99.90;;;;;;5066767;28;20452;-68
2023/01/28 10:50:21;;;;;;;3.30;2.43;;;1.50;99.90;;;;;;5071125;28;20873;-69
2023/01/28 10:52:53;;;;;;;2.47;2.37;;;1.60;99.90;;;;;;5071172;28;20518;-68
2023/01/28 10:55:21;;;;;;;3.60;1.80;;;1.60;99.90;;;;;;5070582;28;20448;-67
2023/01/28 10:57:48;;;;;;;2.13;1.93;;;1.50;99.90;;;;;;5070709;28;20993;-68
2023/01/28 11:00:24;;;;;;;2.20;1.90;;;1.50;99.90;;;;;;5068531;28;20444;-68
2023/01/28 11:02:53;;;;;;;2.60;2.40;;;1.50;99.90;;;;;;5073131;28;20541;-68
2023/01/28 11:05:24;;;;;;;2.27;2.07;;;1.50;99.90;;;;;;5059143;28;20512;-72
2023/01/28 11:07:51;;;;;;;2.73;2.33;;;1.50;99.90;;;;;;5071650;28;20864;-72
2023/01/28 11:10:31;;;;;;;2.83;2.50;;;1.50;99.90;;;;;;5070557;28;20505;-73
2023/01/28 11:12:59;;;;;;;2.50;2.37;;;1.50;99.90;;;;;;5070468;28;20464;-72
2023/01/28 11:15:26;;;;;;;3.93;3.03;;;1.50;99.90;;;;;;5070000;28;20455;-68
2023/01/28 11:17:57;;;;;;;3.17;2.33;;;1.50;99.90;;;;;;5070765;28;20510;-68
2023/01/28 11:20:27;;;;;;;2.60;2.40;;;1.40;99.90;;;;;;5071024;28;20443;-67
2023/01/28 11:22:55;;;;;;;3.20;2.90;;;1.50;99.90;;;;;;5070136;28;20491;-67
2023/01/28 11:25:30;;;;;;;2.63;2.40;;;1.50;99.90;;;;;;5070419;28;20448;-67
2023/01/28 11:27:58;;;;;;;3.10;2.30;;;1.60;99.90;;;;;;5070551;28;20850;-67
2023/01/28 11:30:28;;;;;;;3.70;2.50;;;1.70;99.90;;;;;;5070804;28;20448;-67
2023/01/28 11:33:04;;;;;;;2.57;2.33;;;1.60;99.90;;;;;;5070564;28;20521;-68
2023/01/28 11:35:32;;;;;;;5.00;2.57;;;1.60;99.90;;;;;;5074018;28;20452;-68
2023/01/28 11:37:59;;;;;;;2.30;2.20;;;1.60;99.90;;;;;;5074097;28;20951;-69
2023/01/28 11:40:26;;;;;;;3.43;2.10;;;1.60;99.90;;;;;;5074392;28;20448;-68
2023/01/28 11:42:56;;;;;;;3.23;2.53;;;1.60;99.90;;;;;;5073703;28;20537;-68
2023/01/28 11:45:32;;;;;;;4.70;2.60;;;1.70;99.90;;;;;;5071951;28;20452;-68
2023/01/28 11:48:30;;;;;;;4.10;2.60;;;1.70;99.90;;;;;;5070285;28;20872;-69
2023/01/28 11:51:03;;;;;;;4.60;2.30;;;1.70;99.90;;;;;;5073313;28;20451;-68
2023/01/28 11:53:50;;;;;;;3.80;2.67;;;1.70;99.90;;;;;;5073524;28;20944;-68
2023/01/28 11:56:36;;;;;;;3.00;2.30;;;1.70;99.90;;;;;;5073535;28;20512;-68
2023/01/28 11:59:18;;;;;;;4.27;3.63;;;1.80;99.90;;;;;;5071623;28;20451;-67
2023/01/28 12:01:49;;;;;;;6.03;3.20;;;1.90;99.90;;;;;;5073779;28;20841;-67
2023/01/28 12:04:33;;;;;;;7.27;2.87;;;2.00;99.90;;;;;;5073804;28;20495;-68
2023/01/28 12:07:15;;;;;;;7.47;3.63;;;2.00;99.90;;;;;;5072636;28;20968;-68
2023/01/28 12:09:52;;;;;;;7.83;4.50;;;2.00;99.90;;;;;;5077598;28;20448;-68
2023/01/28 12:12:38;;;;;;;8.73;4.80;;;1.90;99.90;;;;;;5073340;28;20519;-68
2023/01/28 12:15:26;;;;;;;6.50;4.43;;;2.00;99.90;;;;;;5070994;28;20509;-68
2023/01/28 12:18:08;;;;;;;5.47;3.50;;;2.00;99.90;;;;;;5070971;28;20456;-68
2023/01/28 12:20:41;;;;;;;2.83;2.60;;;2.10;99.90;;;;;;5067488;28;20448;-68
2023/01/28 12:23:23;;;;;;;4.97;2.60;;;2.00;99.90;;;;;;5073197;28;20560;-67
2023/01/28 12:26:01;;;;;;;3.00;2.80;;;2.00;99.90;;;;;;5073638;28;20498;-67
2023/01/28 12:28:36;;;;;;;5.03;2.93;;;1.90;99.90;;;;;;5073366;28;21100;-68
2023/01/28 12:31:19;;;;;;;4.30;3.10;;;1.90;99.90;;;;;;5073553;28;20517;-68
2023/01/28 12:34:06;;;;;;;3.73;2.90;;;2.00;99.90;;;;;;5070111;28;20940;-68
2023/01/28 12:36:45;;;;;;;7.23;5.07;;;1.90;99.90;;;;;;5066401;28;20806;-68
2023/01/28 12:39:23;;;;;;;5.33;3.33;;;1.90;99.90;;;;;;5073887;28;20932;-68
2023/01/28 12:41:54;;;;;;;4.30;2.83;;;1.90;99.90;;;;;;5074042;28;20467;-68
2023/01/28 12:44:26;;;;;;;2.73;2.53;;;2.10;99.90;;;;;;5072516;28;20513;-68
2023/01/28 12:46:58;;;;;;;6.13;2.40;;;2.00;99.90;;;;;;5072456;28;20460;-69
2023/01/28 12:49:30;;;;;;;2.90;2.40;;;2.00;99.90;;;;;;5065496;28;20448;-68
2023/01/28 12:52:04;;;;;;;2.70;2.50;;;1.90;99.90;;;;;;5073308;28;20468;-69
2023/01/28 12:54:36;;;;;;;3.53;2.90;;;2.00;99.90;;;;;;5073176;28;20513;-67
2023/01/28 12:57:03;;;;;;;2.70;2.50;;;1.90;99.90;;;;;;5073270;28;20517;-69
2023/01/28 12:59:37;;;;;;;2.90;2.80;;;1.90;99.90;;;;;;5072204;28;20478;-68
2023/01/28 13:02:18;;;;;;;3.23;3.03;;;1.90;99.90;;;;;;5073048;28;20517;-68
2023/01/28 13:04:51;;;;;;;5.57;3.07;;;2.00;99.90;;;;;;5072494;28;20541;-68
2023/01/28 13:07:25;;;;;;;2.57;2.20;;;1.90;99.90;;;;;;5072734;28;20444;-69
2023/01/28 13:09:58;;;;;;;4.00;2.47;;;1.90;99.90;;;;;;5072374;28;20455;-68
2023/01/28 13:12:25;;;;;;;3.80;2.90;;;1.90;99.90;;;;;;5064604;28;20468;-70
2023/01/28 13:14:53;;;;;;;3.87;2.23;;;1.80;99.90;;;;;;5072568;28;20432;-69
2023/01/28 13:17:27;;;;;;;2.80;2.60;;;1.80;99.90;;;;;;5071224;28;21016;-69
2023/01/28 13:19:53;;;;;;;8.23;4.00;;;1.70;99.90;;;;;;5071991;28;20444;-67
2023/01/28 13:22:31;;;;;;;6.80;3.77;;;1.70;99.90;;;;;;5069256;28;20540;-67
2023/01/28 13:25:12;;;;;;;3.00;2.70;;;1.70;99.90;;;;;;5068454;28;20492;-70
2023/01/28 13:27:39;;;;;;;8.43;2.83;;;1.70;99.90;;;;;;5067109;28;20494;-71
2023/01/28 13:30:22;;;;;;;4.83;3.00;;;1.70;99.90;;;;;;5064518;28;20513;-70
2023/01/28 13:32:57;;;;;;;4.53;3.13;;;1.60;99.90;;;;;;5065336;28;20590;-72
2023/01/28 13:35:33;;;;;;;3.43;3.13;;;1.60;99.90;;;;;;5067647;28;20504;-70
2023/01/28 13:38:08;;;;;;;4.97;2.43;;;1.70;99.90;;;;;;5067216;28;20460;-73